Time;durP1;ratioP1;P1;durP2;ratioP2;P2;SDS_P1;SDS_P2;PMS_P1;PMS_P2;Temp;Humidity;BMP_temperature;BMP_pressure;BME280_temperature;BME280_humidity;BME280_pressure;Samples;Min_cycle;Max_cycle;Signal;HPM_P1;HPM_P2
2023/08/06 00:00:52;;;;;;;5.83;2.77;;;;;;;-145.14;100.00;70583.66;5014252;28;20611;-67
2023/08/06 00:03:17;;;;;;;3.53;2.67;;;;;;;-145.14;100.00;70583.66;5013395;28;20204;-67
2023/08/06 00:05:43;;;;;;;4.30;2.60;;;;;;;-145.14;100.00;70583.66;5014354;28;20242;-67
2023/08/06 00:08:08;;;;;;;4.10;3.23;;;;;;;-145.14;100.00;70583.66;5011734;28;20184;-67
2023/08/06 00:10:34;;;;;;;3.60;2.83;;;;;;;-145.14;100.00;70583.66;5011120;28;20185;-67
2023/08/06 00:12:59;;;;;;;3.60;3.03;;;;;;;-145.14;100.00;70583.66;5014180;28;20673;-67
2023/08/06 00:15:24;;;;;;;3.03;2.50;;;;;;;-145.14;100.00;70583.66;5013866;28;20212;-67
2023/08/06 00:17:50;;;;;;;4.07;2.80;;;;;;;-145.14;100.00;70583.66;5013349;28;20631;-67
2023/08/06 00:20:15;;;;;;;4.10;2.73;;;;;;;-145.14;100.00;70583.66;5015096;28;20631;-67
2023/08/06 00:22:41;;;;;;;3.97;2.43;;;;;;;-145.14;100.00;70583.66;5012606;28;20204;-67
2023/08/06 00:25:07;;;;;;;4.40;3.60;;;;;;;-145.14;100.00;70583.66;5010312;28;20271;-67
2023/08/06 00:27:32;;;;;;;3.30;3.00;;;;;;;-145.14;100.00;70583.66;5011127;28;20184;-67
2023/08/06 00:29:58;;;;;;;3.70;2.50;;;;;;;-145.14;100.00;70583.66;5015031;28;20191;-67
2023/08/06 00:32:23;;;;;;;3.73;2.83;;;;;;;-145.14;100.00;70583.66;5018239;28;20199;-67
2023/08/06 00:34:49;;;;;;;3.27;2.80;;;;;;;-145.14;100.00;70583.66;5011344;28;20246;-67
2023/08/06 00:37:16;;;;;;;4.53;2.60;;;;;;;-145.14;100.00;70583.66;5014068;28;20189;-67
2023/08/06 00:39:42;;;;;;;4.13;2.87;;;;;;;-145.14;100.00;70583.66;5015400;28;20215;-67
2023/08/06 00:42:08;;;;;;;5.20;2.70;;;;;;;-145.14;100.00;70583.66;5013847;28;20448;-67
2023/08/06 00:44:33;;;;;;;5.17;3.07;;;;;;;-145.14;100.00;70583.66;5016250;28;20442;-67
2023/08/06 00:46:59;;;;;;;4.13;2.57;;;;;;;-145.14;100.00;70583.66;5014064;28;20227;-67
2023/08/06 00:49:24;;;;;;;3.67;2.90;;;;;;;-145.14;100.00;70583.66;5001238;28;20194;-67
2023/08/06 00:51:50;;;;;;;4.77;3.10;;;;;;;-145.14;100.00;70583.66;5013844;28;20657;-67
2023/08/06 00:54:16;;;;;;;6.13;2.43;;;;;;;-145.14;100.00;70583.66;5009765;28;20189;-67
2023/08/06 00:56:42;;;;;;;4.20;2.70;;;;;;;-145.14;100.00;70583.66;5009626;28;20193;-67
2023/08/06 00:59:09;;;;;;;4.13;3.00;;;;;;;-145.14;100.00;70583.66;5011464;28;20819;-67
2023/08/06 01:01:35;;;;;;;3.70;2.70;;;;;;;-145.14;100.00;70583.66;5012149;28;20534;-67
2023/08/06 01:04:01;;;;;;;4.40;2.90;;;;;;;-145.14;100.00;70583.66;5012819;28;20497;-67
2023/08/06 01:07:00;;;;;;;3.60;2.97;;;;;;;-145.14;100.00;70583.66;5014429;28;20339;-67
2023/08/06 01:09:37;;;;;;;5.17;3.27;;;;;;;-145.14;100.00;70583.66;5017288;28;20429;-67
2023/08/06 01:12:18;;;;;;;3.40;3.10;;;;;;;-145.14;100.00;70583.66;5021966;28;21025;-67
2023/08/06 01:14:55;;;;;;;4.83;3.30;;;;;;;-145.14;100.00;70583.66;5014995;28;20818;-67
2023/08/06 01:17:22;;;;;;;3.23;2.87;;;;;;;-145.14;100.00;70583.66;5019599;28;20481;-67
2023/08/06 01:19:48;;;;;;;3.43;2.87;;;;;;;-145.14;100.00;70583.66;5014356;28;20463;-67
2023/08/06 01:22:14;;;;;;;4.90;3.20;;;;;;;-145.14;100.00;70583.66;5013462;28;20508;-67
2023/08/06 01:24:44;;;;;;;4.90;3.10;;;;;;;-145.14;100.00;70583.66;5014664;28;20208;-67
2023/08/06 01:27:20;;;;;;;3.97;3.30;;;;;;;-145.14;100.00;70583.66;5018386;28;20185;-67
2023/08/06 01:29:56;;;;;;;5.63;3.40;;;;;;;-145.14;100.00;70583.66;5016594;28;20473;-67
2023/08/06 01:32:24;;;;;;;5.43;3.43;;;;;;;-145.14;100.00;70583.66;5016295;28;20912;-67
2023/08/06 01:34:51;;;;;;;4.40;3.50;;;;;;;-145.14;100.00;70583.66;5017000;28;20462;-67
2023/08/06 01:37:17;;;;;;;3.77;3.27;;;;;;;-145.14;100.00;70583.66;5013744;28;20470;-67
2023/08/06 01:39:43;;;;;;;5.87;3.30;;;;;;;-145.14;100.00;70583.66;5015247;28;20490;-67
2023/08/06 01:42:09;;;;;;;5.70;4.40;;;;;;;-145.14;100.00;70583.66;5018196;28;20897;-67
2023/08/06 01:44:34;;;;;;;4.20;3.10;;;;;;;-145.14;100.00;70583.66;5019189;28;20462;-67
2023/08/06 01:46:59;;;;;;;3.33;2.87;;;;;;;-145.14;100.00;70583.66;5015106;28;20185;-67
2023/08/06 01:49:25;;;;;;;4.83;3.60;;;;;;;-145.14;100.00;70583.66;5008776;28;20193;-67
2023/08/06 01:51:50;;;;;;;4.27;3.47;;;;;;;-145.14;100.00;70583.66;5012077;28;20238;-67
2023/08/06 01:54:16;;;;;;;4.97;3.90;;;;;;;-145.14;100.00;70583.66;5005884;28;20585;-67
2023/08/06 01:56:41;;;;;;;4.27;3.87;;;;;;;-145.14;100.00;70583.66;5008946;28;20654;-67
2023/08/06 01:59:07;;;;;;;5.27;4.00;;;;;;;-145.14;100.00;70583.66;5008636;28;20244;-67
2023/08/06 02:01:32;;;;;;;4.30;3.70;;;;;;;-145.14;100.00;70583.66;5006885;28;20320;-67
2023/08/06 02:03:57;;;;;;;4.43;3.93;;;;;;;-145.14;100.00;70583.66;5007609;28;20575;-67
2023/08/06 02:06:23;;;;;;;6.77;4.23;;;;;;;-145.14;100.00;70583.66;5008604;28;20998;-67
2023/08/06 02:08:48;;;;;;;5.20;3.87;;;;;;;-145.14;100.00;70583.66;5008803;28;20187;-67
2023/08/06 02:11:14;;;;;;;7.27;4.07;;;;;;;-145.14;100.00;70583.66;5006859;28;20192;-67
2023/08/06 02:13:39;;;;;;;5.13;4.03;;;;;;;-145.14;100.00;70583.66;5001251;28;20224;-67
2023/08/06 02:16:08;;;;;;;5.13;4.00;;;;;;;-145.14;100.00;70583.66;5007117;28;20700;-67
2023/08/06 02:18:33;;;;;;;4.63;4.13;;;;;;;-145.14;100.00;70583.66;5010017;28;20185;-66
2023/08/06 02:20:59;;;;;;;4.03;3.60;;;;;;;-145.14;100.00;70583.66;5008195;28;20820;-67
2023/08/06 02:23:26;;;;;;;6.20;4.53;;;;;;;-145.14;100.00;70583.66;5006342;28;20216;-67
2023/08/06 02:26:02;;;;;;;9.23;4.13;;;;;;;-145.14;100.00;70583.66;5002712;28;20835;-67
2023/08/06 02:28:28;;;;;;;4.77;3.57;;;;;;;-145.14;100.00;70583.66;5004164;28;21036;-67
2023/08/06 02:30:54;;;;;;;5.73;3.70;;;;;;;-145.14;100.00;70583.66;5009516;28;20533;-67
2023/08/06 02:33:19;;;;;;;4.50;4.00;;;;;;;-145.14;100.00;70583.66;5021318;28;20505;-67
2023/08/06 02:35:45;;;;;;;6.80;4.00;;;;;;;-145.14;100.00;70583.66;5009502;28;20212;-67
2023/08/06 02:38:10;;;;;;;5.33;4.20;;;;;;;-145.14;100.00;70583.66;5003415;28;20417;-67
2023/08/06 02:40:36;;;;;;;4.60;4.10;;;;;;;-145.14;100.00;70583.66;5007883;28;20216;-67
2023/08/06 02:43:01;;;;;;;6.27;4.40;;;;;;;-145.14;100.00;70583.66;5007952;28;20192;-67
2023/08/06 02:45:26;;;;;;;6.13;4.80;;;;;;;-145.14;100.00;70583.66;5008589;28;20575;-67
2023/08/06 02:47:52;;;;;;;5.37;4.40;;;;;;;-145.14;100.00;70583.66;5010640;28;20533;-67
2023/08/06 02:50:17;;;;;;;4.60;4.20;;;;;;;-145.14;100.00;70583.66;5012818;28;20666;-66
2023/08/06 02:52:43;;;;;;;5.30;4.30;;;;;;;-145.14;100.00;70583.66;5012203;28;20188;-67
2023/08/06 02:55:08;;;;;;;6.10;4.17;;;;;;;-145.14;100.00;70583.66;5011626;28;20743;-67
2023/08/06 02:57:34;;;;;;;4.77;4.03;;;;;;;-145.14;100.00;70583.66;5011532;28;20278;-67
2023/08/06 02:59:59;;;;;;;5.50;4.93;;;;;;;-145.14;100.00;70583.66;5012248;28;20205;-67
2023/08/06 03:02:25;;;;;;;7.33;4.80;;;;;;;-145.14;100.00;70583.66;5007800;28;20486;-66
2023/08/06 03:04:50;;;;;;;4.93;4.37;;;;;;;-145.14;100.00;70583.66;5007788;28;20209;-67
2023/08/06 03:07:16;;;;;;;7.70;4.20;;;;;;;-145.14;100.00;70583.66;5010624;28;20197;-67
2023/08/06 03:09:41;;;;;;;6.87;4.00;;;;;;;-145.14;100.00;70583.66;5009711;28;20498;-66
2023/08/06 03:12:07;;;;;;;4.30;3.90;;;;;;;-145.14;100.00;70583.66;5007200;28;20188;-67
2023/08/06 03:14:33;;;;;;;4.57;4.13;;;;;;;-145.14;100.00;70583.66;5010284;28;20200;-67
2023/08/06 03:16:58;;;;;;;4.87;4.37;;;;;;;-145.14;100.00;70583.66;5010159;28;20525;-67
2023/08/06 03:19:23;;;;;;;5.73;4.90;;;;;;;-145.14;100.00;70583.66;5010066;28;20243;-67
2023/08/06 03:21:49;;;;;;;5.20;4.70;;;;;;;-145.14;100.00;70583.66;5016576;28;20238;-67
2023/08/06 03:24:14;;;;;;;5.70;4.57;;;;;;;-145.14;100.00;70583.66;5008850;28;20549;-67
2023/08/06 03:26:40;;;;;;;5.37;4.40;;;;;;;-145.14;100.00;70583.66;5010378;28;20227;-67
2023/08/06 03:29:05;;;;;;;5.87;5.10;;;;;;;-145.14;100.00;70583.66;5011401;28;20264;-66
2023/08/06 03:31:30;;;;;;;5.00;4.43;;;;;;;-145.14;100.00;70583.66;5012826;28;20188;-66
2023/08/06 03:33:56;;;;;;;5.00;4.50;;;;;;;-145.14;100.00;70583.66;5011696;28;20199;-67
2023/08/06 03:36:21;;;;;;;5.90;5.30;;;;;;;-145.14;100.00;70583.66;5011069;28;20670;-67
2023/08/06 03:38:47;;;;;;;5.80;4.87;;;;;;;-145.14;100.00;70583.66;5012488;28;20322;-67
2023/08/06 03:41:12;;;;;;;6.20;5.33;;;;;;;-145.14;100.00;70583.66;5010641;28;20759;-66
2023/08/06 03:43:38;;;;;;;5.03;4.40;;;;;;;-145.14;100.00;70583.66;5010078;28;20189;-66
2023/08/06 03:46:03;;;;;;;5.70;5.03;;;;;;;-145.14;100.00;70583.66;5010593;28;20219;-66
2023/08/06 03:48:28;;;;;;;6.23;4.70;;;;;;;-145.14;100.00;70583.66;5011965;28;20204;-67
2023/08/06 03:50:54;;;;;;;6.40;5.10;;;;;;;-145.14;100.00;70583.66;5012711;28;20725;-67
2023/08/06 03:53:19;;;;;;;6.30;5.07;;;;;;;-145.14;100.00;70583.66;5009621;28;20196;-66
2023/08/06 03:55:45;;;;;;;5.70;4.87;;;;;;;-145.14;100.00;70583.66;5010942;28;20704;-67
2023/08/06 03:58:10;;;;;;;6.00;4.60;;;;;;;-145.14;100.00;70583.66;5012787;28;20711;-66
2023/08/06 04:00:35;;;;;;;6.40;4.70;;;;;;;-145.14;100.00;70583.66;5010414;28;20220;-66
2023/08/06 04:03:01;;;;;;;5.20;4.27;;;;;;;-145.14;100.00;70583.66;5007511;28;20238;-67
2023/08/06 04:05:26;;;;;;;6.93;5.10;;;;;;;-145.14;100.00;70583.66;5009185;28;20274;-66
2023/08/06 04:07:52;;;;;;;5.67;4.90;;;;;;;-145.14;100.00;70583.66;5010982;28;20667;-66
2023/08/06 04:10:17;;;;;;;5.90;5.13;;;;;;;-145.14;100.00;70583.66;5011035;28;20246;-66
2023/08/06 04:12:43;;;;;;;7.27;5.13;;;;;;;-145.14;100.00;70583.66;5009924;28;20230;-66
2023/08/06 04:15:08;;;;;;;5.77;5.07;;;;;;;-145.14;100.00;70583.66;5014837;28;20212;-67
2023/08/06 04:17:34;;;;;;;5.30;4.80;;;;;;;-145.14;100.00;70583.66;5011318;28;20199;-66
2023/08/06 04:19:59;;;;;;;6.77;4.90;;;;;;;-145.14;100.00;70583.66;5011031;28;20250;-66
2023/08/06 04:22:25;;;;;;;5.70;5.10;;;;;;;-145.14;100.00;70583.66;5010724;28;20195;-66
2023/08/06 04:24:50;;;;;;;5.77;5.17;;;;;;;-145.14;100.00;70583.66;5010128;28;20351;-67
2023/08/06 04:27:16;;;;;;;7.73;5.17;;;;;;;-145.14;100.00;70583.66;5011233;28;20181;-66
2023/08/06 04:29:42;;;;;;;5.33;4.40;;;;;;;-145.14;100.00;70583.66;5009211;28;20671;-67
2023/08/06 04:32:09;;;;;;;6.37;5.53;;;;;;;-145.14;100.00;70583.66;5006028;28;20451;-66
2023/08/06 04:34:36;;;;;;;6.83;5.60;;;;;;;-145.14;100.00;70583.66;5002239;28;20577;-67
2023/08/06 04:37:02;;;;;;;5.67;4.70;;;;;;;-145.14;100.00;70583.66;5006206;28;20932;-67
2023/08/06 04:39:27;;;;;;;7.13;4.50;;;;;;;-145.14;100.00;70583.66;5005029;28;20710;-66
2023/08/06 04:41:53;;;;;;;5.20;4.70;;;;;;;-145.14;100.00;70583.66;5005673;28;20447;-67
2023/08/06 04:44:18;;;;;;;5.47;4.93;;;;;;;-145.14;100.00;70583.66;5006293;28;20189;-67
2023/08/06 04:46:44;;;;;;;7.00;5.27;;;;;;;-145.14;100.00;70583.66;5013914;28;20189;-67
2023/08/06 04:49:09;;;;;;;5.10;4.60;;;;;;;-145.14;100.00;70583.66;5018071;28;20185;-67
2023/08/06 04:51:35;;;;;;;4.43;3.67;;;;;;;-145.14;100.00;70583.66;5012301;28;20184;-66
2023/08/06 04:54:00;;;;;;;4.40;3.87;;;;;;;-145.14;100.00;70583.66;5014850;28;20173;-67
2023/08/06 04:56:26;;;;;;;6.67;4.50;;;;;;;-145.14;100.00;70583.66;5010296;28;20213;-66
2023/08/06 04:58:52;;;;;;;5.50;5.00;;;;;;;-145.14;100.00;70583.66;5010898;28;20227;-66
2023/08/06 05:01:17;;;;;;;4.67;4.20;;;;;;;-145.14;100.00;70583.66;5020219;28;21023;-66
2023/08/06 05:03:43;;;;;;;5.20;4.70;;;;;;;-145.14;100.00;70583.66;5012810;28;20267;-66
2023/08/06 05:06:08;;;;;;;5.07;4.50;;;;;;;-145.14;100.00;70583.66;5015738;28;20204;-66
2023/08/06 05:08:34;;;;;;;7.00;4.43;;;;;;;-145.14;100.00;70583.66;5012951;28;20185;-66
2023/08/06 05:10:59;;;;;;;6.53;4.23;;;;;;;-145.14;100.00;70583.66;5013259;28;20188;-66
2023/08/06 05:13:25;;;;;;;5.73;4.57;;;;;;;-145.14;100.00;70583.66;5008824;28;20695;-66
2023/08/06 05:15:50;;;;;;;4.67;4.23;;;;;;;-145.14;100.00;70583.66;5011817;28;20856;-67
2023/08/06 05:18:16;;;;;;;5.90;4.63;;;;;;;-145.14;100.00;70583.66;5012939;28;20212;-67
2023/08/06 05:20:42;;;;;;;5.30;4.80;;;;;;;-145.14;100.00;70583.66;5011340;28;20221;-67
2023/08/06 05:23:08;;;;;;;5.93;4.50;;;;;;;-145.14;100.00;70583.66;5009114;28;20301;-67
2023/08/06 05:25:40;;;;;;;6.27;4.70;;;;;;;-145.14;100.00;70583.66;5008018;28;21007;-67
2023/08/06 05:28:05;;;;;;;5.40;4.90;;;;;;;-145.14;100.00;70583.66;5005346;28;20212;-67
2023/08/06 05:30:31;;;;;;;4.90;4.40;;;;;;;-145.14;100.00;70583.66;5007485;28;20588;-67
2023/08/06 05:32:57;;;;;;;5.00;4.33;;;;;;;-145.14;100.00;70583.66;5010518;28;20192;-67
2023/08/06 05:35:23;;;;;;;4.80;4.30;;;;;;;-145.14;100.00;70583.66;5008150;28;20223;-67
2023/08/06 05:37:50;;;;;;;6.10;4.50;;;;;;;-145.14;100.00;70583.66;5008045;28;20184;-67
2023/08/06 05:40:15;;;;;;;4.90;4.40;;;;;;;-145.14;100.00;70583.66;5004825;28;20474;-67
2023/08/06 05:42:41;;;;;;;5.20;4.53;;;;;;;-145.14;100.00;70583.66;5010350;28;20450;-67
2023/08/06 05:45:07;;;;;;;4.80;4.30;;;;;;;-145.14;100.00;70583.66;5011909;28;20274;-67
2023/08/06 05:47:33;;;;;;;6.20;4.23;;;;;;;-145.14;100.00;70583.66;5017515;28;20486;-67
2023/08/06 05:49:58;;;;;;;6.20;4.40;;;;;;;-145.14;100.00;70583.66;5013128;28;20440;-67
2023/08/06 05:52:24;;;;;;;5.67;4.03;;;;;;;-145.14;100.00;70583.66;5015113;28;20184;-66
2023/08/06 05:54:49;;;;;;;6.40;4.37;;;;;;;-145.14;100.00;70583.66;5015413;28;20216;-67
2023/08/06 05:57:15;;;;;;;6.07;4.77;;;;;;;-145.14;100.00;70583.66;5023780;28;20191;-66
2023/08/06 05:59:41;;;;;;;4.47;4.07;;;;;;;-145.14;100.00;70583.66;5016260;28;20704;-66
2023/08/06 06:02:06;;;;;;;6.93;3.90;;;;;;;-145.14;100.00;70583.66;5016469;28;20185;-66
2023/08/06 06:04:32;;;;;;;6.00;4.40;;;;;;;-145.14;100.00;70583.66;5011181;28;20236;-67
2023/08/06 06:06:57;;;;;;;4.80;4.23;;;;;;;-145.14;100.00;70583.66;5015454;28;20219;-67
2023/08/06 06:09:22;;;;;;;4.53;3.50;;;;;;;-145.14;100.00;70583.66;5016340;28;20637;-67
2023/08/06 06:11:49;;;;;;;3.87;3.33;;;;;;;-145.14;100.00;70583.66;5018337;28;20664;-67
2023/08/06 06:14:16;;;;;;;5.30;3.73;;;;;;;-145.14;100.00;70583.66;5015602;28;20177;-67
2023/08/06 06:16:41;;;;;;;4.20;3.50;;;;;;;-145.14;100.00;70583.66;5014687;28;20435;-67
2023/08/06 06:19:07;;;;;;;3.67;3.30;;;;;;;-145.14;100.00;70583.66;5014260;28;20491;-67
2023/08/06 06:21:32;;;;;;;3.20;2.77;;;;;;;-145.14;100.00;70583.66;5013154;28;20195;-67
2023/08/06 06:23:57;;;;;;;4.20;3.73;;;;;;;-145.14;100.00;70583.66;5011518;28;20619;-67
2023/08/06 06:26:23;;;;;;;4.67;3.30;;;;;;;-145.14;100.00;70583.66;5014035;28;20216;-67
2023/08/06 06:28:48;;;;;;;4.73;2.87;;;;;;;-145.14;100.00;70583.66;5015498;28;20558;-67
2023/08/06 06:31:14;;;;;;;16.40;3.70;;;;;;;-145.14;100.00;70583.66;5016125;28;20193;-67
2023/08/06 06:33:39;;;;;;;5.30;3.20;;;;;;;-145.14;100.00;70583.66;5015115;28;20196;-67
2023/08/06 06:36:07;;;;;;;9.60;3.73;;;;;;;-145.14;100.00;70583.66;5013982;28;20212;-67
2023/08/06 06:38:33;;;;;;;4.23;2.93;;;;;;;-145.14;100.00;70583.66;5013601;28;20187;-66
2023/08/06 06:40:58;;;;;;;3.83;3.07;;;;;;;-145.14;100.00;70583.66;5013204;28;20494;-67
2023/08/06 06:43:25;;;;;;;3.70;3.17;;;;;;;-145.14;100.00;70583.66;5014489;28;20905;-66
2023/08/06 06:45:59;;;;;;;3.07;2.57;;;;;;;-145.14;100.00;70583.66;5013372;28;20207;-67
2023/08/06 06:48:29;;;;;;;3.83;3.43;;;;;;;-145.14;100.00;70583.66;5015721;28;20427;-66
2023/08/06 06:50:55;;;;;;;4.10;2.90;;;;;;;-145.14;100.00;70583.66;5015571;28;20419;-67
2023/08/06 06:53:21;;;;;;;3.00;2.60;;;;;;;-145.14;100.00;70583.66;5011776;28;20443;-66
2023/08/06 06:55:49;;;;;;;2.87;2.27;;;;;;;-145.14;100.00;70583.66;5014402;28;20447;-67
2023/08/06 06:58:15;;;;;;;3.43;2.73;;;;;;;-145.14;100.00;70583.66;5013855;28;20451;-67
2023/08/06 07:00:41;;;;;;;2.50;2.17;;;;;;;-145.14;100.00;70583.66;5018414;28;20501;-67
2023/08/06 07:03:06;;;;;;;3.47;2.50;;;;;;;-145.14;100.00;70583.66;5009760;28;20525;-67
2023/08/06 07:05:32;;;;;;;3.00;2.57;;;;;;;-145.14;100.00;70583.66;5008941;28;20209;-66
2023/08/06 07:07:58;;;;;;;3.53;2.70;;;;;;;-145.14;100.00;70583.66;5014970;28;20239;-67
2023/08/06 07:10:23;;;;;;;3.90;2.70;;;;;;;-145.14;100.00;70583.66;5013116;28;20188;-67
2023/08/06 07:12:48;;;;;;;2.90;2.20;;;;;;;-145.14;100.00;70583.66;5003154;28;20235;-66
2023/08/06 07:15:14;;;;;;;2.80;2.50;;;;;;;-145.14;100.00;70583.66;5006231;28;20274;-66
2023/08/06 07:17:39;;;;;;;3.43;2.70;;;;;;;-145.14;100.00;70583.66;5009698;28;20275;-67
2023/08/06 07:20:06;;;;;;;4.10;2.40;;;;;;;-145.14;100.00;70583.66;5005682;28;20593;-67
2023/08/06 07:22:31;;;;;;;2.70;2.13;;;;;;;-145.14;100.00;70583.66;5011456;28;20720;-66
2023/08/06 07:24:57;;;;;;;2.70;2.30;;;;;;;-145.14;100.00;70583.66;5009149;28;20557;-66
2023/08/06 07:27:22;;;;;;;3.07;2.40;;;;;;;-145.14;100.00;70583.66;5008837;28;20242;-66
2023/08/06 07:29:48;;;;;;;2.70;2.13;;;;;;;-145.14;100.00;70583.66;5010542;28;20744;-67
2023/08/06 07:32:13;;;;;;;3.63;2.07;;;;;;;-145.14;100.00;70583.66;5006669;28;20284;-66
2023/08/06 07:34:39;;;;;;;2.73;2.00;;;;;;;-145.14;100.00;70583.66;5009532;28;20337;-66
2023/08/06 07:37:05;;;;;;;3.00;1.80;;;;;;;-145.14;100.00;70583.66;5004156;28;20192;-67
2023/08/06 07:39:31;;;;;;;3.00;2.40;;;;;;;-145.14;100.00;70583.66;5010960;28;20220;-66
2023/08/06 07:41:56;;;;;;;2.50;2.00;;;;;;;-145.14;100.00;70583.66;5001920;28;20444;-68
2023/08/06 07:44:22;;;;;;;2.40;2.00;;;;;;;-145.14;100.00;70583.66;5006031;28;20195;-67
2023/08/06 07:46:47;;;;;;;2.63;2.40;;;;;;;-145.14;100.00;70583.66;5008444;28;20606;-67
2023/08/06 07:49:12;;;;;;;2.73;2.13;;;;;;;-145.14;100.00;70583.66;5008609;28;20188;-68
2023/08/06 07:51:38;;;;;;;2.27;1.70;;;;;;;-145.14;100.00;70583.66;5011803;28;20235;-67
2023/08/06 07:54:03;;;;;;;2.80;2.23;;;;;;;-145.14;100.00;70583.66;5010144;28;20230;-68
2023/08/06 07:56:29;;;;;;;3.60;2.00;;;;;;;-145.14;100.00;70583.66;5008105;28;20197;-68
2023/08/06 07:58:54;;;;;;;2.77;2.20;;;;;;;-145.14;100.00;70583.66;5009817;28;20196;-67
2023/08/06 08:01:20;;;;;;;2.30;1.97;;;;;;;-145.14;100.00;70583.66;5011993;28;20185;-67
2023/08/06 08:03:45;;;;;;;2.70;1.67;;;;;;;-145.14;100.00;70583.66;5009562;28;20181;-67
2023/08/06 08:06:11;;;;;;;3.07;1.97;;;;;;;-145.14;100.00;70583.66;5013093;28;20201;-68
2023/08/06 08:08:38;;;;;;;3.00;1.77;;;;;;;-145.14;100.00;70583.66;5009687;28;20184;-67
2023/08/06 08:11:04;;;;;;;2.53;1.90;;;;;;;-145.14;100.00;70583.66;5010118;28;20186;-67
2023/08/06 08:13:29;;;;;;;2.63;2.17;;;;;;;-145.14;100.00;70583.66;5003636;28;20838;-67
2023/08/06 08:15:58;;;;;;;3.43;2.37;;;;;;;-145.14;100.00;70583.66;5008281;28;20652;-68
2023/08/06 08:18:24;;;;;;;2.47;1.97;;;;;;;-145.14;100.00;70583.66;5006931;28;20626;-67
2023/08/06 08:20:50;;;;;;;2.70;1.67;;;;;;;-145.14;100.00;70583.66;5006261;28;21128;-67
2023/08/06 08:23:15;;;;;;;2.97;2.13;;;;;;;-145.14;100.00;70583.66;5013977;28;20192;-67
2023/08/06 08:25:41;;;;;;;2.80;2.00;;;;;;;-145.14;100.00;70583.66;5008381;28;20258;-68
2023/08/06 08:28:07;;;;;;;3.00;2.20;;;;;;;-145.14;100.00;70583.66;5007488;28;20184;-68
2023/08/06 08:30:32;;;;;;;2.67;2.00;;;;;;;-145.14;100.00;70583.66;5014892;28;20188;-68
2023/08/06 08:32:58;;;;;;;3.93;2.10;;;;;;;-145.14;100.00;70583.66;5006401;28;20447;-67
2023/08/06 08:35:23;;;;;;;3.00;2.20;;;;;;;-145.14;100.00;70583.66;5014586;28;20720;-67
2023/08/06 08:37:49;;;;;;;2.73;2.30;;;;;;;-145.14;100.00;70583.66;5006937;28;20191;-68
2023/08/06 08:40:15;;;;;;;3.70;2.30;;;;;;;-145.14;100.00;70583.66;5008389;28;20204;-68
2023/08/06 08:42:40;;;;;;;2.47;2.10;;;;;;;-145.14;100.00;70583.66;5010925;28;20192;-68
2023/08/06 08:45:15;;;;;;;3.40;2.33;;;;;;;-145.14;100.00;70583.66;5016585;28;20814;-67
2023/08/06 08:47:42;;;;;;;2.30;1.83;;;;;;;-145.14;100.00;70583.66;5008075;28;20224;-68
2023/08/06 08:50:10;;;;;;;2.57;1.90;;;;;;;-145.14;100.00;70583.66;5014894;28;20803;-68
2023/08/06 08:52:38;;;;;;;3.10;2.27;;;;;;;-145.14;100.00;70583.66;5010839;28;20435;-68
2023/08/06 08:55:03;;;;;;;2.90;2.13;;;;;;;-145.14;100.00;70583.66;5008249;28;21135;-68
2023/08/06 08:57:29;;;;;;;2.60;1.80;;;;;;;-145.14;100.00;70583.66;5004271;28;20444;-68
2023/08/06 08:59:54;;;;;;;5.00;1.97;;;;;;;-145.14;100.00;70583.66;5007143;28;20223;-67
2023/08/06 09:02:22;;;;;;;2.93;1.80;;;;;;;-145.14;100.00;70583.66;5012868;28;20846;-67
2023/08/06 09:04:48;;;;;;;3.53;2.23;;;;;;;-145.14;100.00;70583.66;5007347;28;20213;-68
2023/08/06 09:07:19;;;;;;;2.40;1.73;;;;;;;-145.14;100.00;70583.66;5013967;28;20505;-68
2023/08/06 09:09:48;;;;;;;2.50;1.70;;;;;;;-145.14;100.00;70583.66;5015356;28;20428;-67
2023/08/06 09:12:17;;;;;;;2.40;1.57;;;;;;;-145.14;100.00;70583.66;5011121;28;20518;-67
2023/08/06 09:14:43;;;;;;;2.33;1.40;;;;;;;-145.14;100.00;70583.66;5020783;28;20503;-68
2023/08/06 09:17:10;;;;;;;2.20;1.60;;;;;;;-145.14;100.00;70583.66;5015583;28;20478;-68
2023/08/06 09:19:37;;;;;;;2.50;1.57;;;;;;;-145.14;100.00;70583.66;5015788;28;20475;-67
2023/08/06 09:22:02;;;;;;;2.17;1.23;;;;;;;-145.14;100.00;70583.66;5011677;28;20525;-68
2023/08/06 09:24:28;;;;;;;1.50;1.10;;;;;;;-145.14;100.00;70583.66;5014146;28;20455;-68
2023/08/06 09:26:54;;;;;;;2.67;1.60;;;;;;;-145.14;100.00;70583.66;5013358;28;20447;-68
2023/08/06 09:29:20;;;;;;;2.40;1.20;;;;;;;-145.14;100.00;70583.66;5010234;28;20180;-68
2023/08/06 09:31:47;;;;;;;1.90;1.40;;;;;;;-145.14;100.00;70583.66;5004822;28;20189;-68
2023/08/06 09:34:16;;;;;;;2.70;1.50;;;;;;;-145.14;100.00;70583.66;5017541;28;20211;-68
2023/08/06 09:36:47;;;;;;;1.83;1.23;;;;;;;-145.14;100.00;70583.66;5010001;28;20444;-68
2023/08/06 09:39:17;;;;;;;1.80;1.03;;;;;;;-145.14;100.00;70583.66;5019952;28;20462;-68
2023/08/06 09:41:43;;;;;;;2.03;1.27;;;;;;;-145.14;100.00;70583.66;5015447;28;20457;-68
2023/08/06 09:44:25;;;;;;;1.77;1.10;;;;;;;-145.14;100.00;70583.66;5015449;28;21042;-68
2023/08/06 09:46:54;;;;;;;1.93;1.00;;;;;;;-145.14;100.00;70583.66;5014656;28;20444;-68
2023/08/06 09:49:22;;;;;;;1.63;1.07;;;;;;;-145.14;100.00;70583.66;5010552;28;20523;-68
2023/08/06 09:51:50;;;;;;;1.87;1.17;;;;;;;-145.14;100.00;70583.66;5012818;28;20449;-68
2023/08/06 09:54:16;;;;;;;1.87;1.10;;;;;;;-145.14;100.00;70583.66;5010671;28;20471;-68
2023/08/06 09:56:43;;;;;;;1.40;0.97;;;;;;;-145.14;100.00;70583.66;5017710;28;20918;-68
2023/08/06 09:59:10;;;;;;;1.80;1.10;;;;;;;-145.14;100.00;70583.66;5013859;28;20506;-68
2023/08/06 10:01:37;;;;;;;2.20;1.50;;;;;;;-145.14;100.00;70583.66;5016343;28;20436;-68
2023/08/06 10:04:04;;;;;;;1.83;1.00;;;;;;;-145.14;100.00;70583.66;5014315;28;21048;-68
2023/08/06 10:06:30;;;;;;;1.87;1.10;;;;;;;-145.14;100.00;70583.66;5012777;28;20466;-68
2023/08/06 10:08:55;;;;;;;1.80;1.10;;;;;;;-145.14;100.00;70583.66;5014324;28;20813;-68
2023/08/06 10:11:23;;;;;;;2.57;1.50;;;;;;;-145.14;100.00;70583.66;5015257;28;20185;-68
2023/08/06 10:13:52;;;;;;;1.70;1.00;;;;;;;-145.14;100.00;70583.66;5014950;28;20276;-67
2023/08/06 10:16:18;;;;;;;2.47;1.20;;;;;;;-145.14;100.00;70583.66;5015124;28;20456;-67
2023/08/06 10:18:44;;;;;;;2.30;1.20;;;;;;;-145.14;100.00;70583.66;5015647;28;20450;-67
2023/08/06 10:21:10;;;;;;;1.50;1.00;;;;;;;-145.14;100.00;70583.66;5014434;28;20467;-67
2023/08/06 10:23:38;;;;;;;1.60;1.10;;;;;;;-145.14;100.00;70583.66;5003974;28;20243;-68
2023/08/06 10:26:04;;;;;;;3.17;1.23;;;;;;;-145.14;100.00;70583.66;5021083;28;20212;-68
2023/08/06 10:28:39;;;;;;;1.90;1.27;;;;;;;-145.14;100.00;70583.66;4997752;28;22044;-68
2023/08/06 10:31:05;;;;;;;2.10;1.30;;;;;;;-145.14;100.00;70583.66;5009446;28;20560;-69
2023/08/06 10:33:44;;;;;;;2.00;1.00;;;;;;;-145.14;100.00;70583.66;5001276;28;20445;-69
2023/08/06 10:36:10;;;;;;;1.53;1.03;;;;;;;-145.14;100.00;70583.66;4994855;28;20989;-67
2023/08/06 10:38:47;;;;;;;1.93;1.10;;;;;;;-145.14;100.00;70583.66;4994273;28;20982;-68
2023/08/06 10:41:23;;;;;;;1.60;1.00;;;;;;;-145.14;100.00;70583.66;5010399;28;20534;-68
2023/08/06 10:43:48;;;;;;;1.70;1.00;;;;;;;-145.14;100.00;70583.66;5000762;28;20465;-68
2023/08/06 10:46:27;;;;;;;2.40;1.13;;;;;;;-145.14;100.00;70583.66;5009595;28;20456;-69
2023/08/06 10:48:52;;;;;;;1.57;1.23;;;;;;;-145.14;100.00;70583.66;5011158;28;20180;-68
2023/08/06 10:51:18;;;;;;;1.30;0.80;;;;;;;-145.14;100.00;70583.66;5009077;28;20448;-68
2023/08/06 10:53:49;;;;;;;1.50;0.90;;;;;;;-145.14;100.00;70583.66;5011121;28;20182;-69
2023/08/06 10:56:22;;;;;;;2.10;1.13;;;;;;;-145.14;100.00;70583.66;5013581;28;20202;-68
2023/08/06 10:58:49;;;;;;;1.30;0.90;;;;;;;-145.14;100.00;70583.66;5010456;28;20424;-68
2023/08/06 11:01:15;;;;;;;2.63;1.20;;;;;;;-145.14;100.00;70583.66;5010921;28;20870;-68
2023/08/06 11:03:42;;;;;;;1.97;1.10;;;;;;;-145.14;100.00;70583.66;5020724;28;20428;-69
2023/08/06 11:06:08;;;;;;;1.93;1.10;;;;;;;-145.14;100.00;70583.66;5011611;28;20462;-68